sensor_id;sensor_type;location;lat;lon;timestamp;P1;durP1;ratioP1;P2;durP2;ratioP2
8964;SDS011;4517;49.020;12.066;2022-09-01T00:01:42;20.20;;;15.27;;
8964;SDS011;4517;49.020;12.066;2022-09-01T00:04:12;20.17;;;15.30;;
8964;SDS011;4517;49.020;12.066;2022-09-01T00:06:40;21.23;;;15.20;;
8964;SDS011;4517;49.020;12.066;2022-09-01T00:09:10;19.37;;;15.10;;
8964;SDS011;4517;49.020;12.066;2022-09-01T00:11:40;20.70;;;15.50;;
8964;SDS011;4517;49.020;12.066;2022-09-01T00:14:07;21.23;;;14.10;;
8964;SDS011;4517;49.020;12.066;2022-09-01T00:16:34;20.80;;;14.37;;
8964;SDS011;4517;49.020;12.066;2022-09-01T00:19:00;21.17;;;14.50;;
8964;SDS011;4517;49.020;12.066;2022-09-01T00:21:29;20.63;;;14.90;;
8964;SDS011;4517;49.020;12.066;2022-09-01T00:23:58;22.60;;;15.20;;
8964;SDS011;4517;49.020;12.066;2022-09-01T00:26:24;22.47;;;15.43;;
8964;SDS011;4517;49.020;12.066;2022-09-01T00:28:50;21.77;;;14.60;;
8964;SDS011;4517;49.020;12.066;2022-09-01T00:31:16;26.83;;;15.43;;
8964;SDS011;4517;49.020;12.066;2022-09-01T00:33:43;30.13;;;15.93;;
8964;SDS011;4517;49.020;12.066;2022-09-01T00:36:09;17.87;;;14.53;;
8964;SDS011;4517;49.020;12.066;2022-09-01T00:38:35;18.30;;;14.10;;
8964;SDS011;4517;49.020;12.066;2022-09-01T00:41:01;21.13;;;14.73;;
8964;SDS011;4517;49.020;12.066;2022-09-01T00:43:43;20.23;;;15.40;;
8964;SDS011;4517;49.020;12.066;2022-09-01T00:46:10;19.37;;;14.67;;
8964;SDS011;4517;49.020;12.066;2022-09-01T00:48:38;22.17;;;14.90;;
8964;SDS011;4517;49.020;12.066;2022-09-01T00:51:04;20.83;;;14.53;;
8964;SDS011;4517;49.020;12.066;2022-09-01T00:53:32;25.47;;;17.00;;
8964;SDS011;4517;49.020;12.066;2022-09-01T00:55:58;28.83;;;15.60;;
8964;SDS011;4517;49.020;12.066;2022-09-01T00:58:24;24.03;;;16.40;;
8964;SDS011;4517;49.020;12.066;2022-09-01T01:00:50;21.47;;;15.33;;
8964;SDS011;4517;49.020;12.066;2022-09-01T01:03:17;21.23;;;15.50;;
8964;SDS011;4517;49.020;12.066;2022-09-01T01:05:45;21.60;;;15.67;;
8964;SDS011;4517;49.020;12.066;2022-09-01T01:08:18;28.63;;;15.80;;
8964;SDS011;4517;49.020;12.066;2022-09-01T01:10:51;26.77;;;16.70;;
8964;SDS011;4517;49.020;12.066;2022-09-01T01:13:17;23.10;;;15.70;;
8964;SDS011;4517;49.020;12.066;2022-09-01T01:15:43;21.50;;;15.20;;
8964;SDS011;4517;49.020;12.066;2022-09-01T01:18:10;20.03;;;15.60;;
8964;SDS011;4517;49.020;12.066;2022-09-01T01:20:36;23.20;;;15.80;;
8964;SDS011;4517;49.020;12.066;2022-09-01T01:23:36;22.17;;;16.30;;
8964;SDS011;4517;49.020;12.066;2022-09-01T01:26:07;23.33;;;16.13;;
8964;SDS011;4517;49.020;12.066;2022-09-01T01:28:35;25.53;;;15.30;;
8964;SDS011;4517;49.020;12.066;2022-09-01T01:31:05;23.07;;;14.60;;
8964;SDS011;4517;49.020;12.066;2022-09-01T01:33:44;23.57;;;16.13;;
8964;SDS011;4517;49.020;12.066;2022-09-01T01:36:16;20.17;;;14.80;;
8964;SDS011;4517;49.020;12.066;2022-09-01T01:38:46;21.53;;;15.30;;
8964;SDS011;4517;49.020;12.066;2022-09-01T01:41:13;24.10;;;14.97;;
8964;SDS011;4517;49.020;12.066;2022-09-01T01:43:40;19.17;;;14.57;;
8964;SDS011;4517;49.020;12.066;2022-09-01T01:46:07;21.30;;;14.50;;
8964;SDS011;4517;49.020;12.066;2022-09-01T01:48:35;22.50;;;15.80;;
8964;SDS011;4517;49.020;12.066;2022-09-01T01:51:03;23.97;;;16.60;;
8964;SDS011;4517;49.020;12.066;2022-09-01T01:53:29;19.83;;;15.10;;
8964;SDS011;4517;49.020;12.066;2022-09-01T01:55:56;23.00;;;15.60;;
8964;SDS011;4517;49.020;12.066;2022-09-01T01:58:22;25.20;;;16.10;;
8964;SDS011;4517;49.020;12.066;2022-09-01T02:00:50;23.70;;;15.57;;
8964;SDS011;4517;49.020;12.066;2022-09-01T02:03:19;22.97;;;16.37;;
8964;SDS011;4517;49.020;12.066;2022-09-01T02:05:49;23.70;;;15.83;;
8964;SDS011;4517;49.020;12.066;2022-09-01T02:08:16;19.97;;;14.73;;
8964;SDS011;4517;49.020;12.066;2022-09-01T02:10:45;23.20;;;17.27;;
8964;SDS011;4517;49.020;12.066;2022-09-01T02:13:13;30.00;;;16.40;;
8964;SDS011;4517;49.020;12.066;2022-09-01T02:15:49;22.10;;;15.50;;
8964;SDS011;4517;49.020;12.066;2022-09-01T02:20:59;25.53;;;16.30;;
8964;SDS011;4517;49.020;12.066;2022-09-01T02:23:26;22.70;;;16.40;;
8964;SDS011;4517;49.020;12.066;2022-09-01T02:25:53;21.73;;;16.27;;
8964;SDS011;4517;49.020;12.066;2022-09-01T02:28:21;26.97;;;17.57;;
8964;SDS011;4517;49.020;12.066;2022-09-01T02:30:48;31.30;;;18.20;;
8964;SDS011;4517;49.020;12.066;2022-09-01T02:33:19;30.40;;;18.03;;
8964;SDS011;4517;49.020;12.066;2022-09-01T02:35:50;27.03;;;16.47;;
8964;SDS011;4517;49.020;12.066;2022-09-01T02:38:17;21.90;;;16.20;;
8964;SDS011;4517;49.020;12.066;2022-09-01T02:40:44;27.13;;;16.80;;
8964;SDS011;4517;49.020;12.066;2022-09-01T02:43:11;25.03;;;18.83;;
8964;SDS011;4517;49.020;12.066;2022-09-01T02:45:39;28.20;;;17.93;;
8964;SDS011;4517;49.020;12.066;2022-09-01T02:48:08;32.40;;;19.20;;
8964;SDS011;4517;49.020;12.066;2022-09-01T02:50:35;29.17;;;18.10;;
8964;SDS011;4517;49.020;12.066;2022-09-01T02:53:01;27.37;;;18.70;;
8964;SDS011;4517;49.020;12.066;2022-09-01T02:55:30;28.07;;;18.93;;
8964;SDS011;4517;49.020;12.066;2022-09-01T02:57:56;26.90;;;18.53;;
8964;SDS011;4517;49.020;12.066;2022-09-01T03:00:22;29.27;;;17.97;;
8964;SDS011;4517;49.020;12.066;2022-09-01T03:02:55;33.33;;;20.60;;
8964;SDS011;4517;49.020;12.066;2022-09-01T03:05:23;32.27;;;19.50;;
8964;SDS011;4517;49.020;12.066;2022-09-01T03:07:57;33.73;;;19.53;;
8964;SDS011;4517;49.020;12.066;2022-09-01T03:10:27;35.13;;;20.40;;
8964;SDS011;4517;49.020;12.066;2022-09-01T03:13:06;28.83;;;19.53;;
8964;SDS011;4517;49.020;12.066;2022-09-01T03:15:36;31.93;;;19.73;;
8964;SDS011;4517;49.020;12.066;2022-09-01T03:18:03;30.33;;;20.67;;
8964;SDS011;4517;49.020;12.066;2022-09-01T03:20:31;35.80;;;21.20;;
8964;SDS011;4517;49.020;12.066;2022-09-01T03:22:59;30.93;;;19.77;;
8964;SDS011;4517;49.020;12.066;2022-09-01T03:25:25;30.20;;;20.60;;
8964;SDS011;4517;49.020;12.066;2022-09-01T03:27:53;30.60;;;19.43;;
8964;SDS011;4517;49.020;12.066;2022-09-01T03:30:21;36.87;;;21.93;;
8964;SDS011;4517;49.020;12.066;2022-09-01T03:32:46;31.13;;;20.13;;
8964;SDS011;4517;49.020;12.066;2022-09-01T03:35:12;37.23;;;20.70;;
8964;SDS011;4517;49.020;12.066;2022-09-01T03:37:38;37.83;;;21.90;;
8964;SDS011;4517;49.020;12.066;2022-09-01T03:40:04;40.37;;;22.53;;
8964;SDS011;4517;49.020;12.066;2022-09-01T03:42:33;33.63;;;20.37;;
8964;SDS011;4517;49.020;12.066;2022-09-01T03:45:00;33.50;;;21.47;;
8964;SDS011;4517;49.020;12.066;2022-09-01T03:47:33;34.40;;;20.17;;
8964;SDS011;4517;49.020;12.066;2022-09-01T03:50:05;36.40;;;21.23;;
8964;SDS011;4517;49.020;12.066;2022-09-01T03:52:36;31.07;;;19.47;;
8964;SDS011;4517;49.020;12.066;2022-09-01T03:55:04;31.90;;;20.23;;
8964;SDS011;4517;49.020;12.066;2022-09-01T03:57:30;36.60;;;20.17;;
8964;SDS011;4517;49.020;12.066;2022-09-01T03:59:55;35.87;;;21.20;;
8964;SDS011;4517;49.020;12.066;2022-09-01T04:02:21;33.80;;;20.47;;
8964;SDS011;4517;49.020;12.066;2022-09-01T04:04:47;33.77;;;20.50;;
8964;SDS011;4517;49.020;12.066;2022-09-01T04:07:12;30.77;;;19.03;;
8964;SDS011;4517;49.020;12.066;2022-09-01T04:09:38;36.27;;;19.80;;
8964;SDS011;4517;49.020;12.066;2022-09-01T04:12:04;33.37;;;20.23;;
8964;SDS011;4517;49.020;12.066;2022-09-01T04:14:33;33.63;;;19.23;;
8964;SDS011;4517;49.020;12.066;2022-09-01T04:16:58;38.93;;;20.40;;
8964;SDS011;4517;49.020;12.066;2022-09-01T04:19:43;34.50;;;19.90;;
8964;SDS011;4517;49.020;12.066;2022-09-01T04:22:08;33.57;;;20.10;;
8964;SDS011;4517;49.020;12.066;2022-09-01T04:24:38;28.17;;;18.00;;
8964;SDS011;4517;49.020;12.066;2022-09-01T04:27:07;28.90;;;19.20;;
8964;SDS011;4517;49.020;12.066;2022-09-01T04:29:34;31.87;;;19.40;;
8964;SDS011;4517;49.020;12.066;2022-09-01T04:32:03;28.77;;;18.40;;
8964;SDS011;4517;49.020;12.066;2022-09-01T04:34:32;34.50;;;19.20;;
8964;SDS011;4517;49.020;12.066;2022-09-01T04:37:08;32.53;;;19.90;;
8964;SDS011;4517;49.020;12.066;2022-09-01T04:39:37;35.40;;;20.17;;
8964;SDS011;4517;49.020;12.066;2022-09-01T04:42:03;34.13;;;22.27;;
8964;SDS011;4517;49.020;12.066;2022-09-01T04:44:30;32.40;;;19.80;;
8964;SDS011;4517;49.020;12.066;2022-09-01T04:46:55;34.93;;;21.53;;
8964;SDS011;4517;49.020;12.066;2022-09-01T04:49:21;32.80;;;21.60;;
8964;SDS011;4517;49.020;12.066;2022-09-01T04:51:48;37.97;;;21.77;;
8964;SDS011;4517;49.020;12.066;2022-09-01T04:54:15;34.23;;;20.90;;
8964;SDS011;4517;49.020;12.066;2022-09-01T04:56:41;36.60;;;21.03;;
8964;SDS011;4517;49.020;12.066;2022-09-01T04:59:09;33.13;;;19.50;;
8964;SDS011;4517;49.020;12.066;2022-09-01T05:01:36;34.50;;;19.90;;
8964;SDS011;4517;49.020;12.066;2022-09-01T05:04:11;33.50;;;19.27;;
8964;SDS011;4517;49.020;12.066;2022-09-01T05:06:41;30.07;;;21.17;;
8964;SDS011;4517;49.020;12.066;2022-09-01T05:09:13;31.93;;;19.40;;
8964;SDS011;4517;49.020;12.066;2022-09-01T05:11:41;29.20;;;18.77;;
8964;SDS011;4517;49.020;12.066;2022-09-01T05:14:09;22.60;;;17.23;;
8964;SDS011;4517;49.020;12.066;2022-09-01T05:16:36;24.80;;;18.30;;
8964;SDS011;4517;49.020;12.066;2022-09-01T05:19:05;27.90;;;17.97;;
8964;SDS011;4517;49.020;12.066;2022-09-01T05:21:32;26.03;;;17.80;;
8964;SDS011;4517;49.020;12.066;2022-09-01T05:23:58;24.87;;;17.10;;
8964;SDS011;4517;49.020;12.066;2022-09-01T05:26:26;23.27;;;16.73;;
8964;SDS011;4517;49.020;12.066;2022-09-01T05:28:57;23.80;;;15.83;;
8964;SDS011;4517;49.020;12.066;2022-09-01T05:31:25;22.80;;;16.23;;
8964;SDS011;4517;49.020;12.066;2022-09-01T05:33:53;26.30;;;15.57;;
8964;SDS011;4517;49.020;12.066;2022-09-01T05:36:20;17.63;;;13.33;;
8964;SDS011;4517;49.020;12.066;2022-09-01T05:38:47;15.80;;;13.20;;
8964;SDS011;4517;49.020;12.066;2022-09-01T05:41:16;17.80;;;12.17;;
8964;SDS011;4517;49.020;12.066;2022-09-01T05:43:44;18.83;;;14.73;;
8964;SDS011;4517;49.020;12.066;2022-09-01T05:46:15;14.70;;;11.70;;
8964;SDS011;4517;49.020;12.066;2022-09-01T05:48:43;15.30;;;12.73;;
8964;SDS011;4517;49.020;12.066;2022-09-01T05:51:10;13.80;;;11.50;;
8964;SDS011;4517;49.020;12.066;2022-09-01T05:53:40;13.93;;;11.97;;
8964;SDS011;4517;49.020;12.066;2022-09-01T05:56:07;13.57;;;11.13;;
8964;SDS011;4517;49.020;12.066;2022-09-01T05:58:34;14.77;;;13.00;;
8964;SDS011;4517;49.020;12.066;2022-09-01T06:01:02;20.93;;;11.90;;
8964;SDS011;4517;49.020;12.066;2022-09-01T06:03:28;13.10;;;11.60;;
8964;SDS011;4517;49.020;12.066;2022-09-01T06:05:54;14.83;;;11.90;;
8964;SDS011;4517;49.020;12.066;2022-09-01T06:08:25;15.20;;;12.63;;
8964;SDS011;4517;49.020;12.066;2022-09-01T06:10:53;14.10;;;11.37;;
8964;SDS011;4517;49.020;12.066;2022-09-01T06:13:19;13.27;;;11.87;;
8964;SDS011;4517;49.020;12.066;2022-09-01T06:15:49;13.80;;;11.40;;
8964;SDS011;4517;49.020;12.066;2022-09-01T06:18:17;14.80;;;12.10;;
8964;SDS011;4517;49.020;12.066;2022-09-01T06:20:44;13.63;;;11.93;;
8964;SDS011;4517;49.020;12.066;2022-09-01T06:23:11;19.77;;;12.70;;
8964;SDS011;4517;49.020;12.066;2022-09-01T06:25:39;14.93;;;12.63;;
8964;SDS011;4517;49.020;12.066;2022-09-01T06:28:06;14.53;;;12.50;;
8964;SDS011;4517;49.020;12.066;2022-09-01T06:30:32;14.57;;;11.80;;
8964;SDS011;4517;49.020;12.066;2022-09-01T06:33:00;13.40;;;11.40;;
8964;SDS011;4517;49.020;12.066;2022-09-01T06:35:29;18.43;;;11.83;;
8964;SDS011;4517;49.020;12.066;2022-09-01T06:37:55;16.00;;;12.30;;
8964;SDS011;4517;49.020;12.066;2022-09-01T06:40:22;14.90;;;11.90;;
8964;SDS011;4517;49.020;12.066;2022-09-01T06:42:50;14.77;;;12.50;;
8964;SDS011;4517;49.020;12.066;2022-09-01T06:45:21;14.43;;;12.80;;
8964;SDS011;4517;49.020;12.066;2022-09-01T06:47:48;24.53;;;11.90;;
8964;SDS011;4517;49.020;12.066;2022-09-01T06:50:17;16.90;;;14.30;;
8964;SDS011;4517;49.020;12.066;2022-09-01T06:52:45;15.40;;;13.57;;
8964;SDS011;4517;49.020;12.066;2022-09-01T06:55:14;16.10;;;12.70;;
8964;SDS011;4517;49.020;12.066;2022-09-01T06:57:40;16.37;;;12.70;;
8964;SDS011;4517;49.020;12.066;2022-09-01T07:00:12;14.60;;;13.00;;
8964;SDS011;4517;49.020;12.066;2022-09-01T07:02:44;14.53;;;11.23;;
8964;SDS011;4517;49.020;12.066;2022-09-01T07:05:17;14.40;;;11.37;;
8964;SDS011;4517;49.020;12.066;2022-09-01T07:07:47;13.40;;;11.80;;
8964;SDS011;4517;49.020;12.066;2022-09-01T07:10:15;14.90;;;11.60;;
8964;SDS011;4517;49.020;12.066;2022-09-01T07:12:44;16.33;;;11.03;;
8964;SDS011;4517;49.020;12.066;2022-09-01T07:15:10;13.10;;;11.77;;
8964;SDS011;4517;49.020;12.066;2022-09-01T07:17:39;16.07;;;11.47;;
8964;SDS011;4517;49.020;12.066;2022-09-01T07:20:06;13.90;;;11.33;;
8964;SDS011;4517;49.020;12.066;2022-09-01T07:22:33;12.30;;;11.10;;
8964;SDS011;4517;49.020;12.066;2022-09-01T07:24:58;14.33;;;11.43;;
8964;SDS011;4517;49.020;12.066;2022-09-01T07:27:25;14.90;;;12.23;;
8964;SDS011;4517;49.020;12.066;2022-09-01T07:29:52;15.70;;;12.77;;
8964;SDS011;4517;49.020;12.066;2022-09-01T07:32:20;13.73;;;11.30;;
8964;SDS011;4517;49.020;12.066;2022-09-01T07:34:45;12.37;;;11.20;;
8964;SDS011;4517;49.020;12.066;2022-09-01T07:37:11;13.90;;;12.00;;
8964;SDS011;4517;49.020;12.066;2022-09-01T07:39:37;13.83;;;12.43;;
8964;SDS011;4517;49.020;12.066;2022-09-01T07:42:08;12.83;;;11.53;;
8964;SDS011;4517;49.020;12.066;2022-09-01T07:44:36;13.90;;;12.50;;
8964;SDS011;4517;49.020;12.066;2022-09-01T07:47:03;15.60;;;13.53;;
8964;SDS011;4517;49.020;12.066;2022-09-01T07:49:33;16.70;;;12.13;;
8964;SDS011;4517;49.020;12.066;2022-09-01T07:52:02;13.13;;;11.80;;
8964;SDS011;4517;49.020;12.066;2022-09-01T07:54:29;13.40;;;12.00;;
8964;SDS011;4517;49.020;12.066;2022-09-01T07:56:55;13.87;;;12.57;;
8964;SDS011;4517;49.020;12.066;2022-09-01T07:59:21;14.10;;;12.70;;
8964;SDS011;4517;49.020;12.066;2022-09-01T08:01:47;12.80;;;11.70;;
8964;SDS011;4517;49.020;12.066;2022-09-01T08:04:13;12.63;;;11.43;;
8964;SDS011;4517;49.020;12.066;2022-09-01T08:06:39;14.10;;;12.70;;
8964;SDS011;4517;49.020;12.066;2022-09-01T08:09:05;13.57;;;12.33;;
8964;SDS011;4517;49.020;12.066;2022-09-01T08:11:31;13.63;;;12.43;;
8964;SDS011;4517;49.020;12.066;2022-09-01T08:13:58;15.10;;;13.80;;
8964;SDS011;4517;49.020;12.066;2022-09-01T08:16:25;13.10;;;12.10;;
8964;SDS011;4517;49.020;12.066;2022-09-01T08:18:51;14.13;;;13.00;;
8964;SDS011;4517;49.020;12.066;2022-09-01T08:21:17;18.53;;;17.03;;
8964;SDS011;4517;49.020;12.066;2022-09-01T08:23:46;14.63;;;13.20;;
8964;SDS011;4517;49.020;12.066;2022-09-01T08:26:13;14.07;;;13.07;;
8964;SDS011;4517;49.020;12.066;2022-09-01T08:28:40;23.70;;;13.73;;
8964;SDS011;4517;49.020;12.066;2022-09-01T08:31:07;13.53;;;12.33;;
8964;SDS011;4517;49.020;12.066;2022-09-01T08:33:35;14.67;;;13.37;;
8964;SDS011;4517;49.020;12.066;2022-09-01T08:36:08;15.20;;;14.00;;
8964;SDS011;4517;49.020;12.066;2022-09-01T08:38:36;14.27;;;12.97;;
8964;SDS011;4517;49.020;12.066;2022-09-01T08:41:04;13.33;;;12.23;;
8964;SDS011;4517;49.020;12.066;2022-09-01T08:43:49;20.00;;;13.40;;
8964;SDS011;4517;49.020;12.066;2022-09-01T08:46:38;12.90;;;11.90;;
8964;SDS011;4517;49.020;12.066;2022-09-01T08:49:09;14.40;;;12.80;;
8964;SDS011;4517;49.020;12.066;2022-09-01T08:51:49;14.40;;;13.20;;
8964;SDS011;4517;49.020;12.066;2022-09-01T08:54:31;13.67;;;12.37;;
8964;SDS011;4517;49.020;12.066;2022-09-01T08:57:13;12.80;;;11.70;;
8964;SDS011;4517;49.020;12.066;2022-09-01T08:59:43;12.90;;;11.80;;
8964;SDS011;4517;49.020;12.066;2022-09-01T09:07:52;13.37;;;12.33;;
8964;SDS011;4517;49.020;12.066;2022-09-01T09:16:15;14.10;;;12.90;;
8964;SDS011;4517;49.020;12.066;2022-09-01T09:18:53;14.37;;;13.27;;
8964;SDS011;4517;49.020;12.066;2022-09-01T09:21:34;13.57;;;12.17;;
8964;SDS011;4517;49.020;12.066;2022-09-01T09:24:05;12.10;;;11.20;;
8964;SDS011;4517;49.020;12.066;2022-09-01T09:26:52;12.87;;;11.77;;
8964;SDS011;4517;49.020;12.066;2022-09-01T09:29:20;13.23;;;12.10;;
8964;SDS011;4517;49.020;12.066;2022-09-01T09:31:47;13.87;;;12.77;;
8964;SDS011;4517;49.020;12.066;2022-09-01T09:34:33;14.27;;;12.77;;
8964;SDS011;4517;49.020;12.066;2022-09-01T09:37:16;13.43;;;12.33;;
8964;SDS011;4517;49.020;12.066;2022-09-01T09:40:00;14.40;;;13.40;;
8964;SDS011;4517;49.020;12.066;2022-09-01T09:42:35;14.80;;;13.30;;
8964;SDS011;4517;49.020;12.066;2022-09-01T09:45:04;12.30;;;11.50;;
8964;SDS011;4517;49.020;12.066;2022-09-01T09:48:02;12.60;;;11.70;;
8964;SDS011;4517;49.020;12.066;2022-09-01T09:50:39;14.50;;;13.20;;
8964;SDS011;4517;49.020;12.066;2022-09-01T09:56:09;14.50;;;13.40;;
8964;SDS011;4517;49.020;12.066;2022-09-01T09:58:45;12.30;;;10.97;;
8964;SDS011;4517;49.020;12.066;2022-09-01T10:01:14;13.60;;;12.40;;
8964;SDS011;4517;49.020;12.066;2022-09-01T10:03:54;13.77;;;12.77;;
8964;SDS011;4517;49.020;12.066;2022-09-01T10:06:38;12.60;;;11.73;;
8964;SDS011;4517;49.020;12.066;2022-09-01T10:11:55;12.50;;;11.50;;
8964;SDS011;4517;49.020;12.066;2022-09-01T10:14:23;13.63;;;12.70;;
8964;SDS011;4517;49.020;12.066;2022-09-01T10:16:56;14.27;;;13.07;;
8964;SDS011;4517;49.020;12.066;2022-09-01T10:19:29;13.53;;;12.47;;
8964;SDS011;4517;49.020;12.066;2022-09-01T10:21:58;13.57;;;12.57;;
8964;SDS011;4517;49.020;12.066;2022-09-01T10:24:34;13.90;;;12.83;;
8964;SDS011;4517;49.020;12.066;2022-09-01T10:27:02;12.63;;;11.73;;
8964;SDS011;4517;49.020;12.066;2022-09-01T10:29:42;18.43;;;12.50;;
8964;SDS011;4517;49.020;12.066;2022-09-01T10:32:16;13.80;;;12.50;;
8964;SDS011;4517;49.020;12.066;2022-09-01T10:34:48;13.67;;;12.57;;
8964;SDS011;4517;49.020;12.066;2022-09-01T10:37:14;21.23;;;11.87;;
8964;SDS011;4517;49.020;12.066;2022-09-01T10:42:34;13.33;;;12.40;;
8964;SDS011;4517;49.020;12.066;2022-09-01T10:45:00;19.13;;;13.00;;
8964;SDS011;4517;49.020;12.066;2022-09-01T10:52:51;14.80;;;13.60;;
8964;SDS011;4517;49.020;12.066;2022-09-01T10:55:17;14.13;;;12.83;;
8964;SDS011;4517;49.020;12.066;2022-09-01T10:57:47;12.97;;;11.97;;
8964;SDS011;4517;49.020;12.066;2022-09-01T11:08:21;13.80;;;12.70;;
8964;SDS011;4517;49.020;12.066;2022-09-01T11:10:58;13.43;;;12.23;;
8964;SDS011;4517;49.020;12.066;2022-09-01T11:13:38;14.13;;;13.10;;
8964;SDS011;4517;49.020;12.066;2022-09-01T11:21:45;13.70;;;12.80;;
8964;SDS011;4517;49.020;12.066;2022-09-01T11:30:23;12.57;;;11.63;;
8964;SDS011;4517;49.020;12.066;2022-09-01T11:35:57;11.80;;;10.90;;
8964;SDS011;4517;49.020;12.066;2022-09-01T11:38:26;11.57;;;10.87;;
8964;SDS011;4517;49.020;12.066;2022-09-01T11:40:56;12.77;;;11.87;;
8964;SDS011;4517;49.020;12.066;2022-09-01T11:43:22;12.60;;;11.70;;
8964;SDS011;4517;49.020;12.066;2022-09-01T11:45:56;13.63;;;12.60;;
8964;SDS011;4517;49.020;12.066;2022-09-01T11:48:36;13.80;;;12.90;;
8964;SDS011;4517;49.020;12.066;2022-09-01T11:51:03;13.10;;;12.20;;
8964;SDS011;4517;49.020;12.066;2022-09-01T11:53:29;13.23;;;12.23;;
8964;SDS011;4517;49.020;12.066;2022-09-01T11:55:56;12.77;;;11.87;;
8964;SDS011;4517;49.020;12.066;2022-09-01T11:58:49;12.00;;;11.10;;
8964;SDS011;4517;49.020;12.066;2022-09-01T12:01:18;12.50;;;11.60;;
8964;SDS011;4517;49.020;12.066;2022-09-01T12:03:47;12.80;;;11.90;;
8964;SDS011;4517;49.020;12.066;2022-09-01T12:06:20;12.50;;;11.47;;
8964;SDS011;4517;49.020;12.066;2022-09-01T12:11:25;14.53;;;11.90;;
8964;SDS011;4517;49.020;12.066;2022-09-01T12:16:32;12.40;;;11.60;;
8964;SDS011;4517;49.020;12.066;2022-09-01T12:19:00;18.00;;;16.20;;
8964;SDS011;4517;49.020;12.066;2022-09-01T12:21:29;14.80;;;13.67;;
8964;SDS011;4517;49.020;12.066;2022-09-01T12:24:10;15.80;;;14.60;;
8964;SDS011;4517;49.020;12.066;2022-09-01T12:26:41;15.70;;;14.57;;
8964;SDS011;4517;49.020;12.066;2022-09-01T12:29:07;13.53;;;12.40;;
8964;SDS011;4517;49.020;12.066;2022-09-01T12:31:35;13.60;;;12.70;;
8964;SDS011;4517;49.020;12.066;2022-09-01T12:34:01;13.30;;;12.13;;
8964;SDS011;4517;49.020;12.066;2022-09-01T12:36:32;13.00;;;12.10;;
8964;SDS011;4517;49.020;12.066;2022-09-01T12:39:19;14.20;;;12.90;;
8964;SDS011;4517;49.020;12.066;2022-09-01T12:42:02;13.00;;;12.00;;
8964;SDS011;4517;49.020;12.066;2022-09-01T12:44:53;12.87;;;12.07;;
8964;SDS011;4517;49.020;12.066;2022-09-01T12:49:57;12.70;;;11.80;;
8964;SDS011;4517;49.020;12.066;2022-09-01T12:52:44;15.10;;;13.90;;
8964;SDS011;4517;49.020;12.066;2022-09-01T12:55:17;12.97;;;12.17;;
8964;SDS011;4517;49.020;12.066;2022-09-01T12:57:45;13.57;;;12.50;;
8964;SDS011;4517;49.020;12.066;2022-09-01T13:00:22;14.30;;;12.23;;
8964;SDS011;4517;49.020;12.066;2022-09-01T13:05:28;11.70;;;10.90;;
8964;SDS011;4517;49.020;12.066;2022-09-01T13:07:58;13.53;;;12.63;;
8964;SDS011;4517;49.020;12.066;2022-09-01T13:10:26;12.57;;;11.67;;
8964;SDS011;4517;49.020;12.066;2022-09-01T13:12:55;12.40;;;11.60;;
8964;SDS011;4517;49.020;12.066;2022-09-01T13:15:22;12.10;;;11.30;;
8964;SDS011;4517;49.020;12.066;2022-09-01T13:17:49;12.17;;;11.37;;
8964;SDS011;4517;49.020;12.066;2022-09-01T13:20:16;14.13;;;12.83;;
8964;SDS011;4517;49.020;12.066;2022-09-01T13:22:42;13.30;;;12.17;;
8964;SDS011;4517;49.020;12.066;2022-09-01T13:25:12;14.00;;;12.93;;
8964;SDS011;4517;49.020;12.066;2022-09-01T13:27:42;13.97;;;12.60;;
8964;SDS011;4517;49.020;12.066;2022-09-01T13:30:09;12.70;;;11.70;;
8964;SDS011;4517;49.020;12.066;2022-09-01T13:32:36;13.10;;;12.17;;
8964;SDS011;4517;49.020;12.066;2022-09-01T13:35:02;12.60;;;11.80;;
8964;SDS011;4517;49.020;12.066;2022-09-01T13:37:28;13.43;;;12.20;;
8964;SDS011;4517;49.020;12.066;2022-09-01T13:39:54;14.00;;;12.60;;
8964;SDS011;4517;49.020;12.066;2022-09-01T13:42:19;12.90;;;12.20;;
8964;SDS011;4517;49.020;12.066;2022-09-01T13:44:45;12.70;;;11.90;;
8964;SDS011;4517;49.020;12.066;2022-09-01T13:47:11;12.23;;;11.33;;
8964;SDS011;4517;49.020;12.066;2022-09-01T13:49:37;14.07;;;13.07;;
8964;SDS011;4517;49.020;12.066;2022-09-01T13:52:03;14.67;;;13.13;;
8964;SDS011;4517;49.020;12.066;2022-09-01T13:54:28;12.70;;;11.80;;
8964;SDS011;4517;49.020;12.066;2022-09-01T13:56:54;11.53;;;10.70;;
8964;SDS011;4517;49.020;12.066;2022-09-01T13:59:19;12.27;;;11.47;;
8964;SDS011;4517;49.020;12.066;2022-09-01T14:01:45;12.70;;;11.80;;
8964;SDS011;4517;49.020;12.066;2022-09-01T14:04:10;16.57;;;15.20;;
8964;SDS011;4517;49.020;12.066;2022-09-01T14:06:40;12.90;;;11.90;;
8964;SDS011;4517;49.020;12.066;2022-09-01T14:09:08;13.30;;;12.50;;
8964;SDS011;4517;49.020;12.066;2022-09-01T14:11:37;12.97;;;12.17;;
8964;SDS011;4517;49.020;12.066;2022-09-01T14:14:03;23.47;;;21.90;;
8964;SDS011;4517;49.020;12.066;2022-09-01T14:16:28;12.73;;;12.03;;
8964;SDS011;4517;49.020;12.066;2022-09-01T14:18:54;12.87;;;12.10;;
8964;SDS011;4517;49.020;12.066;2022-09-01T14:21:20;13.20;;;12.20;;
8964;SDS011;4517;49.020;12.066;2022-09-01T14:23:46;13.37;;;12.30;;
8964;SDS011;4517;49.020;12.066;2022-09-01T14:26:13;12.30;;;11.50;;
8964;SDS011;4517;49.020;12.066;2022-09-01T14:28:40;13.77;;;11.50;;
8964;SDS011;4517;49.020;12.066;2022-09-01T14:31:10;12.03;;;11.33;;
8964;SDS011;4517;49.020;12.066;2022-09-01T14:33:37;12.70;;;11.90;;
8964;SDS011;4517;49.020;12.066;2022-09-01T14:36:04;11.87;;;11.17;;
8964;SDS011;4517;49.020;12.066;2022-09-01T14:38:31;11.80;;;11.10;;
8964;SDS011;4517;49.020;12.066;2022-09-01T14:40:57;12.50;;;11.70;;
8964;SDS011;4517;49.020;12.066;2022-09-01T14:43:22;12.87;;;12.07;;
8964;SDS011;4517;49.020;12.066;2022-09-01T14:45:49;12.60;;;11.90;;
8964;SDS011;4517;49.020;12.066;2022-09-01T14:48:33;13.00;;;12.20;;
8964;SDS011;4517;49.020;12.066;2022-09-01T14:50:59;13.30;;;12.20;;
8964;SDS011;4517;49.020;12.066;2022-09-01T14:53:26;13.53;;;12.43;;
8964;SDS011;4517;49.020;12.066;2022-09-01T14:55:53;12.47;;;11.67;;
8964;SDS011;4517;49.020;12.066;2022-09-01T14:58:20;12.00;;;11.10;;
8964;SDS011;4517;49.020;12.066;2022-09-01T15:00:46;12.47;;;11.67;;
8964;SDS011;4517;49.020;12.066;2022-09-01T15:03:12;13.70;;;12.50;;
8964;SDS011;4517;49.020;12.066;2022-09-01T15:05:37;14.17;;;12.97;;
8964;SDS011;4517;49.020;12.066;2022-09-01T15:08:03;13.40;;;12.60;;
8964;SDS011;4517;49.020;12.066;2022-09-01T15:10:30;13.43;;;12.30;;
8964;SDS011;4517;49.020;12.066;2022-09-01T15:12:57;15.00;;;12.33;;
8964;SDS011;4517;49.020;12.066;2022-09-01T15:15:25;12.60;;;11.90;;
8964;SDS011;4517;49.020;12.066;2022-09-01T15:17:51;13.33;;;12.47;;
8964;SDS011;4517;49.020;12.066;2022-09-01T15:20:18;11.73;;;11.03;;
8964;SDS011;4517;49.020;12.066;2022-09-01T15:23:02;13.77;;;12.87;;
8964;SDS011;4517;49.020;12.066;2022-09-01T15:25:28;11.73;;;11.03;;
8964;SDS011;4517;49.020;12.066;2022-09-01T15:27:53;11.73;;;11.03;;
8964;SDS011;4517;49.020;12.066;2022-09-01T15:30:19;13.10;;;12.30;;
8964;SDS011;4517;49.020;12.066;2022-09-01T15:32:46;14.00;;;13.10;;
8964;SDS011;4517;49.020;12.066;2022-09-01T15:35:13;12.00;;;11.20;;
8964;SDS011;4517;49.020;12.066;2022-09-01T15:37:40;11.30;;;10.53;;
8964;SDS011;4517;49.020;12.066;2022-09-01T15:40:06;12.23;;;11.53;;
8964;SDS011;4517;49.020;12.066;2022-09-01T15:42:33;12.40;;;11.70;;
8964;SDS011;4517;49.020;12.066;2022-09-01T15:45:00;13.40;;;12.53;;
8964;SDS011;4517;49.020;12.066;2022-09-01T15:47:28;11.90;;;11.20;;